Time,TemperatureF,DewpointF,PressureIn,WindDirection,WindDirectionDegrees,WindSpeedMPH,WindSpeedGustMPH,Humidity,HourlyPrecipIn,Conditions,Clouds,dailyrainin,SoftwareType,DateUTC
2016-08-26 00:02:00,83.2,79.3,30.00,SE,139,2.8,8.4,88,0.00,OVC,FEW,0.00,WeatherDisplay:10.37,2016-08-26 05:02:00,
2016-08-26 00:07:00,83.3,79.4,30.00,SE,144,2.6,6.3,88,0.00,OVC,FEW,0.00,WeatherDisplay:10.37,2016-08-26 05:07:00,
2016-08-26 00:12:00,83.2,79.3,30.00,ESE,105,0.3,0.0,88,0.00,OVC,FEW,0.00,WeatherDisplay:10.37,2016-08-26 05:12:00,
2016-08-26 00:17:00,83.1,78.8,29.99,SE,128,0.0,6.9,87,0.00,OVC,FEW,0.00,WeatherDisplay:10.37,2016-08-26 05:17:00,
2016-08-26 00:22:00,83.0,78.7,29.99,SE,128,0.0,0.0,87,0.00,OVC,FEW,0.00,WeatherDisplay:10.37,2016-08-26 05:22:00,
2016-08-26 00:27:00,82.9,78.6,29.99,SE,130,0.1,1.2,87,0.00,OVC,FEW,0.00,WeatherDisplay:10.37,2016-08-26 05:27:00,
2016-08-26 00:32:00,82.8,78.9,29.99,SE,133,1.3,4.6,88,0.00,OVC,FEW,0.00,WeatherDisplay:10.37,2016-08-26 05:32:00,
2016-08-26 00:37:00,82.7,78.8,30.00,SSE,154,1.1,4.6,88,0.00,OVC,FEW,0.00,WeatherDisplay:10.37,2016-08-26 05:37:00,
2016-08-26 00:42:00,82.7,78.4,29.99,SSE,149,0.6,1.2,87,0.00,OVC,FEW,0.00,WeatherDisplay:10.37,2016-08-26 05:42:00,
2016-08-26 00:47:00,82.7,78.4,29.99,SE,130,1.5,5.8,87,0.00,OVC,FEW,0.00,WeatherDisplay:10.37,2016-08-26 05:47:00,
2016-08-26 00:52:00,82.7,78.4,29.99,ESE,120,0.7,3.5,87,0.00,OVC,FEW,0.00,WeatherDisplay:10.37,2016-08-26 05:52:00,
2016-08-26 00:57:00,82.7,78.8,30.00,South,170,0.0,4.6,88,0.00,OVC,FEW,0.00,WeatherDisplay:10.37,2016-08-26 05:57:00,
2016-08-26 01:02:00,82.7,78.8,30.00,ESE,118,0.2,3.2,88,0.00,OVC,FEW,0.00,WeatherDisplay:10.37,2016-08-26 06:02:00,
2016-08-26 01:07:00,82.7,78.8,30.00,SSE,163,0.0,0.0,88,0.00,OVC,FEW,0.00,WeatherDisplay:10.37,2016-08-26 06:07:00,
2016-08-26 01:12:00,82.6,78.7,30.00,SE,133,0.1,2.3,88,0.00,OVC,FEW,0.00,WeatherDisplay:10.37,2016-08-26 06:12:00,
2016-08-26 01:17:00,82.5,78.6,29.99,SSE,150,0.0,0.0,88,0.00,OVC,FEW,0.00,WeatherDisplay:10.37,2016-08-26 06:17:00,
2016-08-26 01:22:00,82.5,78.6,30.00,SSE,161,0.0,0.0,88,0.00,OVC,FEW,0.00,WeatherDisplay:10.37,2016-08-26 06:22:00,
2016-08-26 01:27:00,82.4,78.5,29.99,SSE,154,0.0,0.0,88,0.00,OVC,FEW,0.00,WeatherDisplay:10.37,2016-08-26 06:27:00,
2016-08-26 01:32:00,82.3,78.7,29.99,SE,139,0.0,0.0,89,0.00,OVC,FEW,0.00,WeatherDisplay:10.37,2016-08-26 06:32:00,
2016-08-26 01:37:00,82.3,78.7,29.99,SE,144,0.0,0.0,89,0.00,OVC,FEW,0.00,WeatherDisplay:10.37,2016-08-26 06:37:00,
2016-08-26 01:42:00,82.2,78.6,29.99,SSE,151,0.0,0.0,89,0.00,OVC,FEW,0.00,WeatherDisplay:10.37,2016-08-26 06:42:00,
2016-08-26 01:50:00,82.1,78.5,29.99,SSE,149,0.0,0.0,89,0.00,OVC,FEW,0.00,WeatherDisplay:10.37,2016-08-26 06:50:00,
2016-08-26 01:55:00,82.1,78.5,29.99,SSE,148,0.0,1.0,89,0.00,OVC,FEW,0.00,WeatherDisplay:10.37,2016-08-26 06:55:00,
2016-08-26 02:00:00,82.1,78.5,29.99,SSE,152,0.0,0.0,89,0.00,OVC,FEW,0.00,WeatherDisplay:10.37,2016-08-26 07:00:00,
2016-08-26 02:05:00,82.1,78.5,29.99,SSE,153,0.0,0.0,89,0.00,OVC,FEW,0.00,WeatherDisplay:10.37,2016-08-26 07:05:00,
2016-08-26 02:10:00,82.0,78.4,29.99,SSE,168,0.0,0.0,89,0.00,OVC,FEW,0.00,WeatherDisplay:10.37,2016-08-26 07:10:00,
2016-08-26 02:15:00,81.9,78.3,29.97,South,173,0.0,0.0,89,0.00,OVC,FEW,0.00,WeatherDisplay:10.37,2016-08-26 07:15:00,
2016-08-26 02:20:00,81.8,78.2,29.98,SSE,165,0.0,0.0,89,0.00,OVC,FEW,0.00,WeatherDisplay:10.37,2016-08-26 07:20:00,